Glenelg, Maryland
Current Conditions -  °F | °C
As of 4:15 AM on Wednesday 28 Jan 2015 (Local Time) from KGAI Reporting Station
Clear Clear  
Wind Chill: -14°   Ceiling: Unl
Heat Index: -7°   Visibility: 10mi
Dew Point: -14°   Wind: 12mph
Humidity: 58%   Direction: 310°NW
Pressure: 30.09"   Gusts: 25mph
Location:  39.26°N, 77°W
Report Text: KGAI 280915Z 31010G22KT 10SM CLR M07/M14 A3009 RMK AO1
Loading
Personal Weather Stations






























Interactive Weather Map New forecast layout! Learn more

10-Day Weather Forecast

Advertisements
Track Severe Weather on mobile